sensor_id;sensor_type;location;lat;lon;timestamp;pressure;altitude;pressure_sealevel;temperature;humidity
20105;BME280;10212;42.714;23.310;2022-10-16T00:04:35;95864.13;;;7.09;96.94
20105;BME280;10212;42.714;23.310;2022-10-16T00:09:35;95867.19;;;7.04;97.44
20105;BME280;10212;42.714;23.310;2022-10-16T00:14:36;95873.81;;;6.82;98.49
20105;BME280;10212;42.714;23.310;2022-10-16T00:19:36;95874.28;;;6.85;97.89
20105;BME280;10212;42.714;23.310;2022-10-16T00:24:37;95881.28;;;6.93;96.97
20105;BME280;10212;42.714;23.310;2022-10-16T00:29:37;95886.59;;;6.92;97.48
20105;BME280;10212;42.714;23.310;2022-10-16T00:34:38;95893.72;;;6.81;97.53
20105;BME280;10212;42.714;23.310;2022-10-16T00:39:38;95887.19;;;6.52;99.15
20105;BME280;10212;42.714;23.310;2022-10-16T00:44:52;95887.53;;;6.66;98.94
20105;BME280;10212;42.714;23.310;2022-10-16T00:49:55;95878.66;;;6.68;98.31
20105;BME280;10212;42.714;23.310;2022-10-16T00:54:56;95880.56;;;6.58;98.25
20105;BME280;10212;42.714;23.310;2022-10-16T00:59:58;95886.03;;;6.46;99.65
20105;BME280;10212;42.714;23.310;2022-10-16T01:04:58;95890.28;;;6.56;98.88
20105;BME280;10212;42.714;23.310;2022-10-16T01:15:06;95890.59;;;6.61;98.68
20105;BME280;10212;42.714;23.310;2022-10-16T01:30:45;95885.97;;;6.30;100.00
20105;BME280;10212;42.714;23.310;2022-10-16T01:35:47;95878.22;;;6.30;99.69
20105;BME280;10212;42.714;23.310;2022-10-16T01:40:52;95885.63;;;6.24;99.71
20105;BME280;10212;42.714;23.310;2022-10-16T01:45:57;95887.41;;;6.24;99.76
20105;BME280;10212;42.714;23.310;2022-10-16T01:51:00;95896.94;;;6.23;100.00
20105;BME280;10212;42.714;23.310;2022-10-16T01:56:02;95897.59;;;6.17;99.82
20105;BME280;10212;42.714;23.310;2022-10-16T02:01:04;95907.94;;;6.17;100.00
20105;BME280;10212;42.714;23.310;2022-10-16T02:06:06;95909.25;;;6.21;99.58
20105;BME280;10212;42.714;23.310;2022-10-16T02:11:06;95908.91;;;6.24;98.91
20105;BME280;10212;42.714;23.310;2022-10-16T02:16:08;95910.94;;;6.39;98.10
20105;BME280;10212;42.714;23.310;2022-10-16T02:26:11;95918.69;;;6.31;96.57
20105;BME280;10212;42.714;23.310;2022-10-16T02:31:14;95922.25;;;6.30;96.13
20105;BME280;10212;42.714;23.310;2022-10-16T02:36:16;95925.94;;;6.27;95.48
20105;BME280;10212;42.714;23.310;2022-10-16T02:41:16;95918.94;;;6.19;95.35
20105;BME280;10212;42.714;23.310;2022-10-16T02:46:17;95928.44;;;6.10;96.18
20105;BME280;10212;42.714;23.310;2022-10-16T02:51:18;95934.34;;;5.94;97.29
20105;BME280;10212;42.714;23.310;2022-10-16T02:56:18;95939.63;;;5.93;96.96
20105;BME280;10212;42.714;23.310;2022-10-16T03:01:19;95948.19;;;5.66;98.24
20105;BME280;10212;42.714;23.310;2022-10-16T03:06:19;95949.31;;;5.64;98.42
20105;BME280;10212;42.714;23.310;2022-10-16T03:11:20;95945.19;;;5.71;98.12
20105;BME280;10212;42.714;23.310;2022-10-16T03:16:20;95954.00;;;5.60;99.03
20105;BME280;10212;42.714;23.310;2022-10-16T03:21:20;95952.44;;;5.49;99.65
20105;BME280;10212;42.714;23.310;2022-10-16T03:26:21;95954.66;;;5.44;99.21
20105;BME280;10212;42.714;23.310;2022-10-16T03:36:35;95962.38;;;5.36;99.80
20105;BME280;10212;42.714;23.310;2022-10-16T03:41:35;95964.78;;;5.37;99.58
20105;BME280;10212;42.714;23.310;2022-10-16T03:46:35;95957.25;;;5.07;100.00
20105;BME280;10212;42.714;23.310;2022-10-16T03:51:36;95963.03;;;5.19;100.00
20105;BME280;10212;42.714;23.310;2022-10-16T03:56:36;95954.59;;;5.17;100.00
20105;BME280;10212;42.714;23.310;2022-10-16T04:01:37;95949.56;;;5.16;100.00
20105;BME280;10212;42.714;23.310;2022-10-16T04:06:37;95954.66;;;5.07;100.00
20105;BME280;10212;42.714;23.310;2022-10-16T04:11:37;95958.50;;;5.03;100.00
20105;BME280;10212;42.714;23.310;2022-10-16T04:16:38;95954.19;;;4.94;100.00
20105;BME280;10212;42.714;23.310;2022-10-16T04:21:39;95960.63;;;5.08;100.00
20105;BME280;10212;42.714;23.310;2022-10-16T04:26:39;95963.97;;;5.00;100.00
20105;BME280;10212;42.714;23.310;2022-10-16T04:31:40;95970.53;;;4.94;100.00
20105;BME280;10212;42.714;23.310;2022-10-16T04:36:40;95973.25;;;4.93;100.00
20105;BME280;10212;42.714;23.310;2022-10-16T04:41:41;95972.97;;;4.96;100.00
20105;BME280;10212;42.714;23.310;2022-10-16T04:46:41;95981.38;;;4.98;100.00
20105;BME280;10212;42.714;23.310;2022-10-16T04:51:42;95988.28;;;5.07;100.00
20105;BME280;10212;42.714;23.310;2022-10-16T04:56:42;95992.03;;;4.95;100.00
20105;BME280;10212;42.714;23.310;2022-10-16T05:01:46;96001.78;;;5.01;100.00
20105;BME280;10212;42.714;23.310;2022-10-16T05:06:47;95997.34;;;4.93;100.00
20105;BME280;10212;42.714;23.310;2022-10-16T05:11:47;96000.09;;;5.10;100.00
20105;BME280;10212;42.714;23.310;2022-10-16T05:16:48;96008.59;;;5.21;100.00
20105;BME280;10212;42.714;23.310;2022-10-16T05:21:49;96008.66;;;5.29;100.00
20105;BME280;10212;42.714;23.310;2022-10-16T05:26:49;96009.84;;;5.35;98.93
20105;BME280;10212;42.714;23.310;2022-10-16T05:31:50;96015.72;;;5.37;99.08
20105;BME280;10212;42.714;23.310;2022-10-16T05:36:51;96024.44;;;5.36;99.27
20105;BME280;10212;42.714;23.310;2022-10-16T05:41:52;96021.25;;;5.60;98.40
20105;BME280;10212;42.714;23.310;2022-10-16T05:46:52;96026.34;;;5.70;97.28
20105;BME280;10212;42.714;23.310;2022-10-16T05:51:53;96032.56;;;5.77;96.19
20105;BME280;10212;42.714;23.310;2022-10-16T05:56:53;96031.06;;;5.93;95.50
20105;BME280;10212;42.714;23.310;2022-10-16T06:01:54;96045.50;;;5.96;94.92
20105;BME280;10212;42.714;23.310;2022-10-16T06:06:57;96044.97;;;6.10;94.53
20105;BME280;10212;42.714;23.310;2022-10-16T06:12:00;96052.34;;;6.23;94.49
20105;BME280;10212;42.714;23.310;2022-10-16T06:17:00;96054.72;;;6.35;93.50
20105;BME280;10212;42.714;23.310;2022-10-16T06:22:00;96056.38;;;6.44;92.58
20105;BME280;10212;42.714;23.310;2022-10-16T06:27:03;96070.44;;;6.68;92.07
20105;BME280;10212;42.714;23.310;2022-10-16T06:32:03;96068.22;;;6.73;92.52
20105;BME280;10212;42.714;23.310;2022-10-16T06:37:03;96072.50;;;6.91;92.13
20105;BME280;10212;42.714;23.310;2022-10-16T06:42:04;96074.53;;;7.14;90.94
20105;BME280;10212;42.714;23.310;2022-10-16T06:47:04;96083.22;;;6.96;91.19
20105;BME280;10212;42.714;23.310;2022-10-16T06:52:04;96090.28;;;7.21;89.95
20105;BME280;10212;42.714;23.310;2022-10-16T06:57:05;96093.00;;;7.11;90.78
20105;BME280;10212;42.714;23.310;2022-10-16T07:02:05;96097.63;;;7.34;89.48
20105;BME280;10212;42.714;23.310;2022-10-16T07:07:07;96093.72;;;7.30;89.77
20105;BME280;10212;42.714;23.310;2022-10-16T07:12:07;96097.19;;;7.55;89.49
20105;BME280;10212;42.714;23.310;2022-10-16T07:17:07;96104.69;;;7.67;88.95
20105;BME280;10212;42.714;23.310;2022-10-16T07:22:08;96098.72;;;7.83;88.17
20105;BME280;10212;42.714;23.310;2022-10-16T07:27:08;96101.97;;;7.85;87.89
20105;BME280;10212;42.714;23.310;2022-10-16T07:32:09;96104.56;;;8.10;88.11
20105;BME280;10212;42.714;23.310;2022-10-16T07:37:09;96103.59;;;8.19;87.59
20105;BME280;10212;42.714;23.310;2022-10-16T07:42:10;96097.44;;;8.29;87.20
20105;BME280;10212;42.714;23.310;2022-10-16T07:47:10;96103.31;;;8.56;86.35
20105;BME280;10212;42.714;23.310;2022-10-16T07:52:10;96099.34;;;8.77;85.24
20105;BME280;10212;42.714;23.310;2022-10-16T07:57:11;96112.00;;;8.97;84.86
20105;BME280;10212;42.714;23.310;2022-10-16T08:02:12;96115.00;;;9.17;84.23
20105;BME280;10212;42.714;23.310;2022-10-16T08:07:12;96109.56;;;9.35;82.66
20105;BME280;10212;42.714;23.310;2022-10-16T08:12:13;96107.53;;;9.54;82.32
20105;BME280;10212;42.714;23.310;2022-10-16T08:17:14;96101.25;;;9.72;81.96
20105;BME280;10212;42.714;23.310;2022-10-16T08:22:14;96094.88;;;9.98;81.35
20105;BME280;10212;42.714;23.310;2022-10-16T08:27:14;96093.38;;;10.27;80.18
20105;BME280;10212;42.714;23.310;2022-10-16T08:32:15;96089.84;;;10.58;78.20
20105;BME280;10212;42.714;23.310;2022-10-16T08:37:15;96097.81;;;10.80;78.25
20105;BME280;10212;42.714;23.310;2022-10-16T08:52:50;96090.53;;;11.43;72.68
20105;BME280;10212;42.714;23.310;2022-10-16T08:57:51;96095.94;;;11.78;69.50
20105;BME280;10212;42.714;23.310;2022-10-16T09:18:37;96081.38;;;12.35;65.77
20105;BME280;10212;42.714;23.310;2022-10-16T09:23:40;96084.59;;;12.59;63.48
20105;BME280;10212;42.714;23.310;2022-10-16T09:28:41;96086.31;;;12.73;62.69
20105;BME280;10212;42.714;23.310;2022-10-16T09:33:41;96082.91;;;12.80;61.77
20105;BME280;10212;42.714;23.310;2022-10-16T09:38:42;96076.72;;;12.87;61.63
20105;BME280;10212;42.714;23.310;2022-10-16T09:48:49;96073.81;;;13.11;59.78
20105;BME280;10212;42.714;23.310;2022-10-16T09:53:54;96068.63;;;13.24;59.83
20105;BME280;10212;42.714;23.310;2022-10-16T09:58:56;96069.50;;;13.45;58.28
20105;BME280;10212;42.714;23.310;2022-10-16T10:03:57;96061.31;;;13.55;58.81
20105;BME280;10212;42.714;23.310;2022-10-16T10:19:21;96054.31;;;14.03;58.18
20105;BME280;10212;42.714;23.310;2022-10-16T10:24:22;96045.44;;;13.97;57.66
20105;BME280;10212;42.714;23.310;2022-10-16T10:29:31;96044.84;;;14.02;58.60
20105;BME280;10212;42.714;23.310;2022-10-16T10:40:02;96030.09;;;14.35;57.00
20105;BME280;10212;42.714;23.310;2022-10-16T10:50:20;96010.69;;;14.63;55.30
20105;BME280;10212;42.714;23.310;2022-10-16T11:05:58;96008.03;;;14.90;55.12
20105;BME280;10212;42.714;23.310;2022-10-16T11:11:05;96004.13;;;15.06;54.15
20105;BME280;10212;42.714;23.310;2022-10-16T11:16:11;95993.59;;;15.13;53.12
20105;BME280;10212;42.714;23.310;2022-10-16T11:21:14;95989.28;;;15.26;52.45
20105;BME280;10212;42.714;23.310;2022-10-16T11:26:20;95981.31;;;15.39;53.15
20105;BME280;10212;42.714;23.310;2022-10-16T11:36:23;95983.28;;;15.51;53.19
20105;BME280;10212;42.714;23.310;2022-10-16T11:46:26;95984.38;;;15.69;53.47
20105;BME280;10212;42.714;23.310;2022-10-16T11:51:41;95985.13;;;15.76;51.73
20105;BME280;10212;42.714;23.310;2022-10-16T11:56:43;95983.84;;;15.85;51.17
20105;BME280;10212;42.714;23.310;2022-10-16T12:02:33;95984.75;;;15.98;49.00
20105;BME280;10212;42.714;23.310;2022-10-16T12:07:06;95981.31;;;16.04;48.32
20105;BME280;10212;42.714;23.310;2022-10-16T12:17:35;95978.50;;;15.99;49.01
20105;BME280;10212;42.714;23.310;2022-10-16T12:22:36;95977.72;;;15.91;47.92
20105;BME280;10212;42.714;23.310;2022-10-16T12:27:37;95982.41;;;16.15;47.44
20105;BME280;10212;42.714;23.310;2022-10-16T12:32:38;95974.31;;;16.17;47.03
20105;BME280;10212;42.714;23.310;2022-10-16T12:37:39;95983.09;;;16.29;46.55
20105;BME280;10212;42.714;23.310;2022-10-16T12:42:40;95976.34;;;16.14;46.39
20105;BME280;10212;42.714;23.310;2022-10-16T12:47:50;95967.88;;;16.12;46.88
20105;BME280;10212;42.714;23.310;2022-10-16T12:52:51;95979.16;;;16.20;47.48
20105;BME280;10212;42.714;23.310;2022-10-16T12:58:30;95982.13;;;15.98;46.21
20105;BME280;10212;42.714;23.310;2022-10-16T13:03:28;95981.88;;;16.06;47.12
20105;BME280;10212;42.714;23.310;2022-10-16T13:24:12;95982.25;;;16.10;46.45
20105;BME280;10212;42.714;23.310;2022-10-16T13:29:13;95983.81;;;16.18;46.81
20105;BME280;10212;42.714;23.310;2022-10-16T13:34:15;95994.00;;;16.33;47.56
20105;BME280;10212;42.714;23.310;2022-10-16T13:39:25;95990.78;;;16.31;44.83
20105;BME280;10212;42.714;23.310;2022-10-16T13:44:26;95993.28;;;16.44;43.94
20105;BME280;10212;42.714;23.310;2022-10-16T13:49:26;95997.03;;;16.55;41.19
20105;BME280;10212;42.714;23.310;2022-10-16T13:54:27;95997.44;;;16.52;41.37
20105;BME280;10212;42.714;23.310;2022-10-16T13:59:35;95994.63;;;16.54;40.72
20105;BME280;10212;42.714;23.310;2022-10-16T14:04:37;96006.66;;;16.61;40.52
20105;BME280;10212;42.714;23.310;2022-10-16T14:09:38;96001.06;;;16.77;39.05
20105;BME280;10212;42.714;23.310;2022-10-16T14:14:43;96007.69;;;16.79;39.00
20105;BME280;10212;42.714;23.310;2022-10-16T14:19:47;96004.56;;;16.70;39.32
20105;BME280;10212;42.714;23.310;2022-10-16T14:24:48;96006.38;;;16.70;39.56
20105;BME280;10212;42.714;23.310;2022-10-16T14:29:49;96007.72;;;16.60;39.10
20105;BME280;10212;42.714;23.310;2022-10-16T14:34:54;96017.72;;;16.70;40.01
20105;BME280;10212;42.714;23.310;2022-10-16T14:39:55;96024.09;;;16.62;40.80
20105;BME280;10212;42.714;23.310;2022-10-16T14:44:55;96024.66;;;16.46;40.10
20105;BME280;10212;42.714;23.310;2022-10-16T14:49:56;96031.44;;;16.35;40.92
20105;BME280;10212;42.714;23.310;2022-10-16T14:54:59;96032.94;;;16.24;41.37
20105;BME280;10212;42.714;23.310;2022-10-16T15:00:00;96035.72;;;16.03;41.77
20105;BME280;10212;42.714;23.310;2022-10-16T15:05:34;96038.69;;;15.82;42.83
20105;BME280;10212;42.714;23.310;2022-10-16T15:10:27;96045.47;;;15.64;44.16
20105;BME280;10212;42.714;23.310;2022-10-16T15:15:33;96043.72;;;15.51;44.38
20105;BME280;10212;42.714;23.310;2022-10-16T15:20:35;96042.00;;;15.31;44.52
20105;BME280;10212;42.714;23.310;2022-10-16T15:25:43;96050.63;;;14.99;45.93
20105;BME280;10212;42.714;23.310;2022-10-16T15:30:43;96062.97;;;14.78;47.06
20105;BME280;10212;42.714;23.310;2022-10-16T15:35:47;96057.94;;;14.56;46.89
20105;BME280;10212;42.714;23.310;2022-10-16T15:40:48;96074.13;;;14.40;47.52
20105;BME280;10212;42.714;23.310;2022-10-16T15:45:59;96076.94;;;14.25;48.18
20105;BME280;10212;42.714;23.310;2022-10-16T15:51:03;96073.69;;;13.95;49.11
20105;BME280;10212;42.714;23.310;2022-10-16T15:56:05;96090.00;;;13.84;49.57
20105;BME280;10212;42.714;23.310;2022-10-16T16:01:06;96095.84;;;13.72;49.52
20105;BME280;10212;42.714;23.310;2022-10-16T16:06:08;96105.84;;;13.55;50.06
20105;BME280;10212;42.714;23.310;2022-10-16T16:11:10;96109.41;;;13.41;50.48
20105;BME280;10212;42.714;23.310;2022-10-16T16:16:12;96116.22;;;13.35;50.83
20105;BME280;10212;42.714;23.310;2022-10-16T16:21:12;96121.78;;;13.18;51.06
20105;BME280;10212;42.714;23.310;2022-10-16T16:26:14;96127.31;;;12.95;52.12
20105;BME280;10212;42.714;23.310;2022-10-16T16:31:14;96138.66;;;12.73;53.44
20105;BME280;10212;42.714;23.310;2022-10-16T16:36:15;96142.53;;;12.56;53.82
20105;BME280;10212;42.714;23.310;2022-10-16T16:41:22;96152.53;;;12.45;55.46
20105;BME280;10212;42.714;23.310;2022-10-16T16:46:23;96167.00;;;12.26;56.13
20105;BME280;10212;42.714;23.310;2022-10-16T16:51:23;96169.22;;;12.07;56.79
20105;BME280;10212;42.714;23.310;2022-10-16T16:56:24;96186.19;;;11.96;57.25
20105;BME280;10212;42.714;23.310;2022-10-16T17:01:25;96199.50;;;11.79;57.46
20105;BME280;10212;42.714;23.310;2022-10-16T17:06:27;96199.50;;;11.79;58.33
20105;BME280;10212;42.714;23.310;2022-10-16T17:11:29;96195.28;;;11.63;58.21
20105;BME280;10212;42.714;23.310;2022-10-16T17:16:32;96200.50;;;11.63;57.43
20105;BME280;10212;42.714;23.310;2022-10-16T17:21:33;96202.56;;;11.68;58.27
20105;BME280;10212;42.714;23.310;2022-10-16T17:26:34;96200.31;;;11.50;59.21
20105;BME280;10212;42.714;23.310;2022-10-16T17:31:37;96209.25;;;11.40;59.67
20105;BME280;10212;42.714;23.310;2022-10-16T17:36:38;96209.03;;;11.27;60.77
20105;BME280;10212;42.714;23.310;2022-10-16T17:41:42;96209.41;;;11.08;61.55
20105;BME280;10212;42.714;23.310;2022-10-16T17:46:45;96219.34;;;10.90;62.61
20105;BME280;10212;42.714;23.310;2022-10-16T17:51:48;96218.16;;;10.77;62.82
20105;BME280;10212;42.714;23.310;2022-10-16T17:56:49;96224.91;;;10.71;63.51
20105;BME280;10212;42.714;23.310;2022-10-16T18:01:49;96224.31;;;10.61;63.80
20105;BME280;10212;42.714;23.310;2022-10-16T18:06:49;96225.47;;;10.58;64.19
20105;BME280;10212;42.714;23.310;2022-10-16T18:11:50;96230.94;;;10.48;64.59
20105;BME280;10212;42.714;23.310;2022-10-16T18:16:58;96239.94;;;10.37;64.59
20105;BME280;10212;42.714;23.310;2022-10-16T18:21:59;96253.34;;;10.26;64.16
20105;BME280;10212;42.714;23.310;2022-10-16T18:26:59;96258.25;;;10.29;64.73
20105;BME280;10212;42.714;23.310;2022-10-16T18:32:00;96267.91;;;10.20;65.42
20105;BME280;10212;42.714;23.310;2022-10-16T18:37:00;96267.72;;;10.22;65.36
20105;BME280;10212;42.714;23.310;2022-10-16T18:42:00;96277.06;;;10.08;65.92
20105;BME280;10212;42.714;23.310;2022-10-16T18:47:01;96285.53;;;10.10;65.15
20105;BME280;10212;42.714;23.310;2022-10-16T18:52:02;96288.00;;;10.03;66.68
20105;BME280;10212;42.714;23.310;2022-10-16T18:57:03;96300.97;;;9.80;67.84
20105;BME280;10212;42.714;23.310;2022-10-16T19:02:03;96305.00;;;9.82;67.66
20105;BME280;10212;42.714;23.310;2022-10-16T19:07:04;96313.00;;;9.81;67.81
20105;BME280;10212;42.714;23.310;2022-10-16T19:12:04;96322.66;;;9.63;69.01
20105;BME280;10212;42.714;23.310;2022-10-16T19:17:06;96324.13;;;9.58;70.02
20105;BME280;10212;42.714;23.310;2022-10-16T19:22:08;96330.16;;;9.41;71.24
20105;BME280;10212;42.714;23.310;2022-10-16T19:27:16;96342.06;;;9.19;72.80
20105;BME280;10212;42.714;23.310;2022-10-16T19:32:16;96345.16;;;9.14;73.17
20105;BME280;10212;42.714;23.310;2022-10-16T19:37:16;96351.81;;;9.25;73.28
20105;BME280;10212;42.714;23.310;2022-10-16T19:42:18;96349.53;;;9.14;73.86
20105;BME280;10212;42.714;23.310;2022-10-16T19:47:18;96346.28;;;9.20;73.63
20105;BME280;10212;42.714;23.310;2022-10-16T19:52:19;96355.72;;;9.21;73.87
20105;BME280;10212;42.714;23.310;2022-10-16T19:57:21;96360.59;;;9.24;73.04
20105;BME280;10212;42.714;23.310;2022-10-16T20:02:22;96364.16;;;9.23;73.08
20105;BME280;10212;42.714;23.310;2022-10-16T20:07:23;96370.19;;;9.24;72.86
20105;BME280;10212;42.714;23.310;2022-10-16T20:12:24;96372.13;;;9.13;74.50
20105;BME280;10212;42.714;23.310;2022-10-16T20:17:24;96376.03;;;8.92;75.31
20105;BME280;10212;42.714;23.310;2022-10-16T20:22:24;96377.31;;;8.88;75.69
20105;BME280;10212;42.714;23.310;2022-10-16T20:27:25;96379.41;;;8.85;75.87
20105;BME280;10212;42.714;23.310;2022-10-16T20:32:28;96381.19;;;8.76;75.74
20105;BME280;10212;42.714;23.310;2022-10-16T20:37:28;96383.59;;;8.69;75.86
20105;BME280;10212;42.714;23.310;2022-10-16T20:42:29;96400.25;;;8.50;76.67
20105;BME280;10212;42.714;23.310;2022-10-16T20:47:29;96391.63;;;8.41;76.78
20105;BME280;10212;42.714;23.310;2022-10-16T20:52:33;96397.75;;;8.31;77.42
20105;BME280;10212;42.714;23.310;2022-10-16T20:57:33;96403.06;;;8.22;77.86
20105;BME280;10212;42.714;23.310;2022-10-16T21:02:33;96392.69;;;8.22;78.02
20105;BME280;10212;42.714;23.310;2022-10-16T21:07:34;96403.47;;;8.08;78.50
20105;BME280;10212;42.714;23.310;2022-10-16T21:12:34;96401.19;;;8.05;78.91
20105;BME280;10212;42.714;23.310;2022-10-16T21:17:35;96400.03;;;8.00;79.06
20105;BME280;10212;42.714;23.310;2022-10-16T21:22:35;96403.72;;;7.89;79.37
20105;BME280;10212;42.714;23.310;2022-10-16T21:27:36;96409.34;;;7.84;79.18
20105;BME280;10212;42.714;23.310;2022-10-16T21:32:37;96407.78;;;7.91;79.12
20105;BME280;10212;42.714;23.310;2022-10-16T21:37:38;96417.75;;;7.78;79.53
20105;BME280;10212;42.714;23.310;2022-10-16T21:42:38;96420.59;;;7.66;80.46
20105;BME280;10212;42.714;23.310;2022-10-16T21:47:39;96430.66;;;7.69;80.33
20105;BME280;10212;42.714;23.310;2022-10-16T21:52:39;96432.63;;;7.49;81.10
20105;BME280;10212;42.714;23.310;2022-10-16T21:57:40;96434.63;;;7.55;80.67
20105;BME280;10212;42.714;23.310;2022-10-16T22:02:40;96444.78;;;7.48;81.62
20105;BME280;10212;42.714;23.310;2022-10-16T22:07:40;96452.53;;;7.40;81.46
20105;BME280;10212;42.714;23.310;2022-10-16T22:12:41;96461.13;;;7.22;82.72
20105;BME280;10212;42.714;23.310;2022-10-16T22:17:41;96462.59;;;7.07;83.84
20105;BME280;10212;42.714;23.310;2022-10-16T22:22:41;96464.56;;;6.95;83.79
20105;BME280;10212;42.714;23.310;2022-10-16T22:27:42;96467.03;;;6.96;84.02
20105;BME280;10212;42.714;23.310;2022-10-16T22:32:42;96470.84;;;6.92;83.34
20105;BME280;10212;42.714;23.310;2022-10-16T22:37:42;96479.69;;;6.71;84.89
20105;BME280;10212;42.714;23.310;2022-10-16T22:42:43;96489.44;;;6.59;85.98
20105;BME280;10212;42.714;23.310;2022-10-16T22:47:44;96487.78;;;6.68;85.44
20105;BME280;10212;42.714;23.310;2022-10-16T22:52:44;96493.81;;;6.59;85.74
20105;BME280;10212;42.714;23.310;2022-10-16T22:57:44;96494.78;;;6.48;85.32
20105;BME280;10212;42.714;23.310;2022-10-16T23:02:45;96493.47;;;6.44;86.59
20105;BME280;10212;42.714;23.310;2022-10-16T23:07:45;96489.59;;;6.48;86.67
20105;BME280;10212;42.714;23.310;2022-10-16T23:12:46;96495.78;;;6.37;87.30
20105;BME280;10212;42.714;23.310;2022-10-16T23:17:46;96498.00;;;6.22;88.14
20105;BME280;10212;42.714;23.310;2022-10-16T23:22:46;96495.56;;;6.20;88.04
20105;BME280;10212;42.714;23.310;2022-10-16T23:27:47;96500.91;;;6.09;88.84
20105;BME280;10212;42.714;23.310;2022-10-16T23:32:47;96498.00;;;6.22;88.12
20105;BME280;10212;42.714;23.310;2022-10-16T23:37:48;96504.44;;;6.08;88.48
20105;BME280;10212;42.714;23.310;2022-10-16T23:42:48;96505.00;;;5.82;90.84
20105;BME280;10212;42.714;23.310;2022-10-16T23:47:49;96509.09;;;5.94;89.93
20105;BME280;10212;42.714;23.310;2022-10-16T23:52:49;96510.72;;;5.85;89.89
20105;BME280;10212;42.714;23.310;2022-10-16T23:57:50;96513.19;;;5.87;90.17
